sensor_id;sensor_type;location;lat;lon;timestamp;pressure;altitude;pressure_sealevel;temperature;humidity
73974;BME280;62336;-26.094;27.994;2023-05-03T00:00:16;85168.11;;;31.52;16.99
73974;BME280;62336;-26.094;27.994;2023-05-03T00:02:40;85168.88;;;30.62;17.60
73974;BME280;62336;-26.094;27.994;2023-05-03T00:05:05;85173.30;;;30.59;17.77
73974;BME280;62336;-26.094;27.994;2023-05-03T00:07:30;85180.02;;;30.79;17.74
73974;BME280;62336;-26.094;27.994;2023-05-03T00:09:56;85190.70;;;31.51;17.38
73974;BME280;62336;-26.094;27.994;2023-05-03T00:12:21;85207.21;;;31.05;17.36
73974;BME280;62336;-26.094;27.994;2023-05-03T00:14:46;85220.10;;;30.86;17.71
73974;BME280;62336;-26.094;27.994;2023-05-03T00:17:14;85219.76;;;31.53;17.18
73974;BME280;62336;-26.094;27.994;2023-05-03T00:19:37;85221.33;;;31.28;17.35
73974;BME280;62336;-26.094;27.994;2023-05-03T00:22:02;85224.10;;;31.28;17.28
73974;BME280;62336;-26.094;27.994;2023-05-03T00:24:29;85229.23;;;31.28;17.48
73974;BME280;62336;-26.094;27.994;2023-05-03T00:26:53;85236.88;;;31.23;17.41
73974;BME280;62336;-26.094;27.994;2023-05-03T00:29:18;85237.51;;;30.81;17.43
73974;BME280;62336;-26.094;27.994;2023-05-03T00:31:44;85246.38;;;31.02;17.74
73974;BME280;62336;-26.094;27.994;2023-05-03T00:34:09;85253.91;;;30.83;17.57
73974;BME280;62336;-26.094;27.994;2023-05-03T00:36:35;85254.36;;;30.73;17.58
73974;BME280;62336;-26.094;27.994;2023-05-03T00:39:01;85251.80;;;31.13;17.43
73974;BME280;62336;-26.094;27.994;2023-05-03T00:41:26;85243.65;;;31.47;17.31
73974;BME280;62336;-26.094;27.994;2023-05-03T00:43:52;85228.81;;;32.04;16.80
73974;BME280;62336;-26.094;27.994;2023-05-03T00:46:17;85215.77;;;31.78;16.91
73974;BME280;62336;-26.094;27.994;2023-05-03T00:48:43;85216.16;;;31.61;16.71
73974;BME280;62336;-26.094;27.994;2023-05-03T00:51:08;85218.41;;;32.22;16.45
73974;BME280;62336;-26.094;27.994;2023-05-03T00:53:33;85213.18;;;32.55;16.29
73974;BME280;62336;-26.094;27.994;2023-05-03T00:55:59;85202.77;;;32.46;16.26
73974;BME280;62336;-26.094;27.994;2023-05-03T00:58:23;85198.05;;;32.34;16.28
73974;BME280;62336;-26.094;27.994;2023-05-03T01:00:48;85198.54;;;32.32;16.47
73974;BME280;62336;-26.094;27.994;2023-05-03T01:03:14;85188.05;;;31.83;16.65
73974;BME280;62336;-26.094;27.994;2023-05-03T01:05:47;85176.65;;;32.03;16.63
73974;BME280;62336;-26.094;27.994;2023-05-03T01:08:10;85170.41;;;31.93;16.75
73974;BME280;62336;-26.094;27.994;2023-05-03T01:10:36;85168.07;;;32.35;16.58
73974;BME280;62336;-26.094;27.994;2023-05-03T01:15:39;85160.94;;;32.63;16.65
73974;BME280;62336;-26.094;27.994;2023-05-03T01:17:50;85163.39;;;32.49;16.80
73974;BME280;62336;-26.094;27.994;2023-05-03T01:20:13;85166.60;;;32.23;16.85
73974;BME280;62336;-26.094;27.994;2023-05-03T01:22:42;85158.68;;;32.15;17.14
73974;BME280;62336;-26.094;27.994;2023-05-03T01:25:06;85152.43;;;31.96;17.33
73974;BME280;62336;-26.094;27.994;2023-05-03T01:27:28;85149.78;;;32.36;17.16
73974;BME280;62336;-26.094;27.994;2023-05-03T01:29:54;85148.23;;;32.21;17.18
73974;BME280;62336;-26.094;27.994;2023-05-03T01:32:25;85145.11;;;31.43;17.56
73974;BME280;62336;-26.094;27.994;2023-05-03T01:34:52;85150.42;;;31.41;17.91
73974;BME280;62336;-26.094;27.994;2023-05-03T01:37:13;85151.43;;;31.86;17.81
73974;BME280;62336;-26.094;27.994;2023-05-03T01:39:40;85159.31;;;31.96;17.64
73974;BME280;62336;-26.094;27.994;2023-05-03T01:42:01;85174.98;;;32.12;17.41
73974;BME280;62336;-26.094;27.994;2023-05-03T01:44:27;85188.73;;;31.94;17.86
73974;BME280;62336;-26.094;27.994;2023-05-03T01:46:52;85199.88;;;31.57;17.86
73974;BME280;62336;-26.094;27.994;2023-05-03T01:49:17;85207.25;;;31.58;18.04
73974;BME280;62336;-26.094;27.994;2023-05-03T01:51:42;85213.42;;;31.72;17.79
73974;BME280;62336;-26.094;27.994;2023-05-03T01:54:07;85218.44;;;31.68;17.84
73974;BME280;62336;-26.094;27.994;2023-05-03T01:56:36;85226.36;;;31.64;17.85
73974;BME280;62336;-26.094;27.994;2023-05-03T01:58:58;85240.99;;;32.33;17.60
73974;BME280;62336;-26.094;27.994;2023-05-03T02:01:23;85269.43;;;31.70;17.85
73974;BME280;62336;-26.094;27.994;2023-05-03T02:03:48;85259.29;;;32.08;17.48
73974;BME280;62336;-26.094;27.994;2023-05-03T02:06:14;85263.26;;;32.15;17.62
73974;BME280;62336;-26.094;27.994;2023-05-03T02:08:39;85268.80;;;31.85;17.81
73974;BME280;62336;-26.094;27.994;2023-05-03T02:11:05;85283.12;;;31.68;17.70
73974;BME280;62336;-26.094;27.994;2023-05-03T02:13:33;85298.56;;;31.95;17.94
73974;BME280;62336;-26.094;27.994;2023-05-03T02:15:56;85307.30;;;32.10;17.81
73974;BME280;62336;-26.094;27.994;2023-05-03T02:18:22;85311.91;;;32.02;17.58
73974;BME280;62336;-26.094;27.994;2023-05-03T02:20:48;85315.65;;;31.49;18.15
73974;BME280;62336;-26.094;27.994;2023-05-03T02:23:13;85315.24;;;31.89;18.45
73974;BME280;62336;-26.094;27.994;2023-05-03T02:25:37;85308.13;;;31.36;19.00
73974;BME280;62336;-26.094;27.994;2023-05-03T02:28:04;85300.90;;;30.67;19.70
73974;BME280;62336;-26.094;27.994;2023-05-03T02:30:28;85301.21;;;31.26;19.38
73974;BME280;62336;-26.094;27.994;2023-05-03T02:32:53;85299.35;;;30.77;19.39
73974;BME280;62336;-26.094;27.994;2023-05-03T02:35:19;85294.69;;;31.18;19.53
73974;BME280;62336;-26.094;27.994;2023-05-03T02:37:44;85290.36;;;31.30;19.08
73974;BME280;62336;-26.094;27.994;2023-05-03T02:40:11;85285.13;;;31.53;18.96
73974;BME280;62336;-26.094;27.994;2023-05-03T02:42:37;85274.52;;;31.63;19.09
73974;BME280;62336;-26.094;27.994;2023-05-03T02:45:02;85254.58;;;31.51;18.93
73974;BME280;62336;-26.094;27.994;2023-05-03T02:47:28;85241.46;;;31.85;18.47
73974;BME280;62336;-26.094;27.994;2023-05-03T02:49:54;85259.38;;;31.61;19.06
73974;BME280;62336;-26.094;27.994;2023-05-03T02:52:19;85269.92;;;31.10;19.33
73974;BME280;62336;-26.094;27.994;2023-05-03T02:54:45;85267.77;;;31.37;19.16
73974;BME280;62336;-26.094;27.994;2023-05-03T02:57:12;85265.36;;;30.40;19.58
73974;BME280;62336;-26.094;27.994;2023-05-03T02:59:42;85256.24;;;31.33;19.02
73974;BME280;62336;-26.094;27.994;2023-05-03T03:02:02;85248.26;;;31.50;18.83
73974;BME280;62336;-26.094;27.994;2023-05-03T03:04:28;85242.34;;;31.62;18.95
73974;BME280;62336;-26.094;27.994;2023-05-03T03:06:53;85237.40;;;31.79;18.99
73974;BME280;62336;-26.094;27.994;2023-05-03T03:09:19;85229.57;;;31.54;18.89
73974;BME280;62336;-26.094;27.994;2023-05-03T03:11:44;85212.61;;;32.24;18.66
73974;BME280;62336;-26.094;27.994;2023-05-03T03:14:09;85206.15;;;32.18;18.62
73974;BME280;62336;-26.094;27.994;2023-05-03T03:16:35;85202.57;;;32.15;18.63
73974;BME280;62336;-26.094;27.994;2023-05-03T03:19:00;85199.44;;;31.91;18.34
73974;BME280;62336;-26.094;27.994;2023-05-03T03:21:26;85200.28;;;32.27;18.40
73974;BME280;62336;-26.094;27.994;2023-05-03T03:23:52;85206.25;;;32.20;18.42
73974;BME280;62336;-26.094;27.994;2023-05-03T03:26:18;85214.95;;;31.88;18.48
73974;BME280;62336;-26.094;27.994;2023-05-03T03:28:44;85221.65;;;31.71;18.67
73974;BME280;62336;-26.094;27.994;2023-05-03T03:31:10;85223.71;;;31.35;19.08
73974;BME280;62336;-26.094;27.994;2023-05-03T03:33:36;85227.01;;;31.67;19.09
73974;BME280;62336;-26.094;27.994;2023-05-03T03:36:01;85232.02;;;30.90;19.43
73974;BME280;62336;-26.094;27.994;2023-05-03T03:38:27;85235.58;;;31.56;19.15
73974;BME280;62336;-26.094;27.994;2023-05-03T03:40:52;85241.98;;;30.49;19.68
73974;BME280;62336;-26.094;27.994;2023-05-03T03:43:18;85237.79;;;30.80;19.70
73974;BME280;62336;-26.094;27.994;2023-05-03T03:45:44;85239.09;;;31.06;19.13
73974;BME280;62336;-26.094;27.994;2023-05-03T03:48:09;85236.41;;;31.05;19.55
73974;BME280;62336;-26.094;27.994;2023-05-03T03:50:35;85234.95;;;30.62;19.74
73974;BME280;62336;-26.094;27.994;2023-05-03T03:52:59;85233.38;;;30.47;19.98
73974;BME280;62336;-26.094;27.994;2023-05-03T03:55:25;85228.33;;;31.27;19.40
73974;BME280;62336;-26.094;27.994;2023-05-03T03:57:50;85231.07;;;30.10;19.72
73974;BME280;62336;-26.094;27.994;2023-05-03T04:00:16;85231.90;;;30.37;19.75
73974;BME280;62336;-26.094;27.994;2023-05-03T04:02:41;85227.61;;;30.55;19.52
73974;BME280;62336;-26.094;27.994;2023-05-03T04:05:06;85225.88;;;29.85;20.18
73974;BME280;62336;-26.094;27.994;2023-05-03T04:07:31;85224.82;;;29.68;19.99
73974;BME280;62336;-26.094;27.994;2023-05-03T04:09:56;85223.27;;;29.74;20.39
73974;BME280;62336;-26.094;27.994;2023-05-03T04:12:21;85227.75;;;29.64;20.01
73974;BME280;62336;-26.094;27.994;2023-05-03T04:14:47;85233.41;;;29.08;20.64
73974;BME280;62336;-26.094;27.994;2023-05-03T04:17:13;85228.98;;;30.24;20.21
73974;BME280;62336;-26.094;27.994;2023-05-03T04:19:37;85228.34;;;29.75;20.16
73974;BME280;62336;-26.094;27.994;2023-05-03T04:22:02;85230.58;;;29.97;20.20
73974;BME280;62336;-26.094;27.994;2023-05-03T04:24:27;85226.81;;;30.28;20.25
73974;BME280;62336;-26.094;27.994;2023-05-03T04:26:53;85229.67;;;30.28;19.92
73974;BME280;62336;-26.094;27.994;2023-05-03T04:29:18;85232.04;;;30.37;19.80
73974;BME280;62336;-26.094;27.994;2023-05-03T04:31:43;85232.85;;;30.89;19.49
73974;BME280;62336;-26.094;27.994;2023-05-03T04:34:09;85233.80;;;30.12;19.63
73974;BME280;62336;-26.094;27.994;2023-05-03T04:36:34;85238.07;;;29.60;20.10
73974;BME280;62336;-26.094;27.994;2023-05-03T04:38:59;85244.13;;;29.69;20.40
73974;BME280;62336;-26.094;27.994;2023-05-03T04:41:24;85244.52;;;29.87;20.14
73974;BME280;62336;-26.094;27.994;2023-05-03T04:43:50;85237.68;;;30.20;20.11
73974;BME280;62336;-26.094;27.994;2023-05-03T04:46:15;85240.64;;;29.46;20.67
73974;BME280;62336;-26.094;27.994;2023-05-03T04:48:48;85243.47;;;29.63;20.42
73974;BME280;62336;-26.094;27.994;2023-05-03T04:51:06;85244.53;;;30.13;20.31
73974;BME280;62336;-26.094;27.994;2023-05-03T04:53:31;85247.06;;;30.30;19.85
73974;BME280;62336;-26.094;27.994;2023-05-03T04:55:56;85251.19;;;30.37;19.91
73974;BME280;62336;-26.094;27.994;2023-05-03T04:58:22;85260.30;;;29.56;20.30
73974;BME280;62336;-26.094;27.994;2023-05-03T05:00:47;85259.07;;;29.61;20.17
73974;BME280;62336;-26.094;27.994;2023-05-03T05:03:13;85262.73;;;29.94;20.29
73974;BME280;62336;-26.094;27.994;2023-05-03T05:05:37;85260.79;;;30.47;19.83
73974;BME280;62336;-26.094;27.994;2023-05-03T05:08:03;85263.69;;;30.37;20.04
73974;BME280;62336;-26.094;27.994;2023-05-03T05:10:28;85269.68;;;29.81;20.33
73974;BME280;62336;-26.094;27.994;2023-05-03T05:12:53;85271.15;;;29.63;20.39
73974;BME280;62336;-26.094;27.994;2023-05-03T05:15:20;85271.69;;;29.51;20.60
73974;BME280;62336;-26.094;27.994;2023-05-03T05:17:45;85270.41;;;30.16;20.12
73974;BME280;62336;-26.094;27.994;2023-05-03T05:20:11;85275.60;;;29.92;20.01
73974;BME280;62336;-26.094;27.994;2023-05-03T05:22:34;85275.23;;;29.38;20.19
73974;BME280;62336;-26.094;27.994;2023-05-03T05:25:00;85275.64;;;29.51;20.23
73974;BME280;62336;-26.094;27.994;2023-05-03T05:27:26;85275.72;;;30.05;20.63
73974;BME280;62336;-26.094;27.994;2023-05-03T05:29:50;85280.58;;;28.91;21.03
73974;BME280;62336;-26.094;27.994;2023-05-03T05:32:15;85279.70;;;28.35;21.55
73974;BME280;62336;-26.094;27.994;2023-05-03T05:34:40;85283.24;;;28.20;21.88
73974;BME280;62336;-26.094;27.994;2023-05-03T05:37:06;85286.30;;;27.96;21.83
73974;BME280;62336;-26.094;27.994;2023-05-03T05:39:31;85284.74;;;28.32;21.91
73974;BME280;62336;-26.094;27.994;2023-05-03T05:41:57;85285.86;;;28.28;21.98
73974;BME280;62336;-26.094;27.994;2023-05-03T05:44:23;85289.04;;;28.62;21.90
73974;BME280;62336;-26.094;27.994;2023-05-03T05:46:48;85292.35;;;28.72;21.99
73974;BME280;62336;-26.094;27.994;2023-05-03T05:49:13;85295.21;;;28.73;21.41
73974;BME280;62336;-26.094;27.994;2023-05-03T05:51:38;85296.69;;;28.66;22.02
73974;BME280;62336;-26.094;27.994;2023-05-03T05:54:05;85300.27;;;29.25;21.41
73974;BME280;62336;-26.094;27.994;2023-05-03T05:56:29;85301.94;;;29.71;21.03
73974;BME280;62336;-26.094;27.994;2023-05-03T05:58:54;85301.92;;;29.41;21.30
73974;BME280;62336;-26.094;27.994;2023-05-03T06:01:19;85302.14;;;29.65;21.11
73974;BME280;62336;-26.094;27.994;2023-05-03T06:03:44;85301.31;;;30.25;20.68
73974;BME280;62336;-26.094;27.994;2023-05-03T06:06:10;85306.86;;;30.11;20.81
73974;BME280;62336;-26.094;27.994;2023-05-03T06:08:36;85310.34;;;30.02;20.84
73974;BME280;62336;-26.094;27.994;2023-05-03T06:11:02;85316.07;;;29.87;21.18
73974;BME280;62336;-26.094;27.994;2023-05-03T06:13:27;85319.45;;;29.74;21.28
73974;BME280;62336;-26.094;27.994;2023-05-03T06:15:52;85321.68;;;30.55;20.89
73974;BME280;62336;-26.094;27.994;2023-05-03T06:18:26;85322.93;;;31.07;19.87
73974;BME280;62336;-26.094;27.994;2023-05-03T06:20:43;85326.61;;;31.05;20.30
73974;BME280;62336;-26.094;27.994;2023-05-03T06:23:08;85324.76;;;30.58;20.39
73974;BME280;62336;-26.094;27.994;2023-05-03T06:25:39;85324.66;;;30.76;19.67
73974;BME280;62336;-26.094;27.994;2023-05-03T06:27:59;85328.55;;;31.15;19.56
73974;BME280;62336;-26.094;27.994;2023-05-03T06:30:26;85328.11;;;31.12;19.33
73974;BME280;62336;-26.094;27.994;2023-05-03T06:32:51;85331.55;;;31.09;20.34
73974;BME280;62336;-26.094;27.994;2023-05-03T06:35:16;85332.27;;;31.68;19.59
73974;BME280;62336;-26.094;27.994;2023-05-03T06:37:41;85334.85;;;31.69;19.11
73974;BME280;62336;-26.094;27.994;2023-05-03T06:40:08;85337.82;;;31.77;18.90
73974;BME280;62336;-26.094;27.994;2023-05-03T06:42:33;85344.51;;;32.31;18.52
73974;BME280;62336;-26.094;27.994;2023-05-03T06:44:58;85347.33;;;32.57;18.16
73974;BME280;62336;-26.094;27.994;2023-05-03T06:47:24;85349.48;;;32.78;17.89
73974;BME280;62336;-26.094;27.994;2023-05-03T06:49:50;85353.04;;;32.53;17.97
73974;BME280;62336;-26.094;27.994;2023-05-03T06:52:15;85355.05;;;32.20;18.52
73974;BME280;62336;-26.094;27.994;2023-05-03T06:54:41;85357.39;;;32.89;18.01
73974;BME280;62336;-26.094;27.994;2023-05-03T06:57:06;85356.34;;;33.09;18.25
73974;BME280;62336;-26.094;27.994;2023-05-03T06:59:32;85359.52;;;33.22;18.15
73974;BME280;62336;-26.094;27.994;2023-05-03T07:01:57;85363.30;;;33.21;18.14
73974;BME280;62336;-26.094;27.994;2023-05-03T07:04:24;85363.18;;;33.53;17.50
73974;BME280;62336;-26.094;27.994;2023-05-03T07:06:50;85364.95;;;33.07;18.28
73974;BME280;62336;-26.094;27.994;2023-05-03T07:09:14;85365.32;;;33.60;17.41
73974;BME280;62336;-26.094;27.994;2023-05-03T07:11:39;85366.98;;;33.72;17.37
73974;BME280;62336;-26.094;27.994;2023-05-03T07:14:05;85370.58;;;33.83;17.28
73974;BME280;62336;-26.094;27.994;2023-05-03T07:16:30;85373.89;;;33.86;17.12
73974;BME280;62336;-26.094;27.994;2023-05-03T07:18:55;85372.74;;;33.88;17.13
73974;BME280;62336;-26.094;27.994;2023-05-03T07:21:21;85375.01;;;34.04;16.83
73974;BME280;62336;-26.094;27.994;2023-05-03T07:23:46;85375.12;;;34.52;16.37
73974;BME280;62336;-26.094;27.994;2023-05-03T07:26:13;85378.57;;;34.13;16.56
73974;BME280;62336;-26.094;27.994;2023-05-03T07:28:37;85377.39;;;34.74;16.55
73974;BME280;62336;-26.094;27.994;2023-05-03T07:31:03;85380.55;;;34.37;16.01
73974;BME280;62336;-26.094;27.994;2023-05-03T07:33:28;85376.91;;;33.48;16.52
73974;BME280;62336;-26.094;27.994;2023-05-03T07:35:53;85380.28;;;34.43;16.57
73974;BME280;62336;-26.094;27.994;2023-05-03T07:38:18;85378.55;;;34.77;16.31
73974;BME280;62336;-26.094;27.994;2023-05-03T07:40:43;85378.82;;;34.86;16.17
73974;BME280;62336;-26.094;27.994;2023-05-03T07:43:14;85380.15;;;35.10;15.57
73974;BME280;62336;-26.094;27.994;2023-05-03T07:45:34;85383.00;;;35.11;15.82
73974;BME280;62336;-26.094;27.994;2023-05-03T07:48:00;85381.12;;;35.21;15.94
73974;BME280;62336;-26.094;27.994;2023-05-03T07:50:25;85381.68;;;34.87;15.57
73974;BME280;62336;-26.094;27.994;2023-05-03T07:52:51;85381.06;;;34.76;15.30
73974;BME280;62336;-26.094;27.994;2023-05-03T07:55:16;85380.64;;;35.16;15.90
73974;BME280;62336;-26.094;27.994;2023-05-03T07:57:41;85380.41;;;35.41;15.40
73974;BME280;62336;-26.094;27.994;2023-05-03T08:00:08;85381.60;;;35.73;15.23
73974;BME280;62336;-26.094;27.994;2023-05-03T08:02:31;85381.57;;;35.83;14.61
73974;BME280;62336;-26.094;27.994;2023-05-03T08:04:57;85383.64;;;35.57;15.23
73974;BME280;62336;-26.094;27.994;2023-05-03T08:07:22;85384.07;;;35.64;15.08
73974;BME280;62336;-26.094;27.994;2023-05-03T08:09:47;85386.93;;;35.42;15.13
73974;BME280;62336;-26.094;27.994;2023-05-03T08:12:14;85386.02;;;35.47;15.15
73974;BME280;62336;-26.094;27.994;2023-05-03T08:14:38;85382.20;;;35.84;14.91
73974;BME280;62336;-26.094;27.994;2023-05-03T08:17:04;85379.27;;;35.69;14.86
73974;BME280;62336;-26.094;27.994;2023-05-03T08:19:29;85377.81;;;36.10;14.59
73974;BME280;62336;-26.094;27.994;2023-05-03T08:21:55;85376.70;;;35.91;14.26
73974;BME280;62336;-26.094;27.994;2023-05-03T08:24:21;85372.33;;;36.06;14.33
73974;BME280;62336;-26.094;27.994;2023-05-03T08:26:45;85373.45;;;36.27;14.42
73974;BME280;62336;-26.094;27.994;2023-05-03T08:29:11;85371.50;;;35.68;14.52
73974;BME280;62336;-26.094;27.994;2023-05-03T08:31:36;85371.28;;;36.01;14.55
73974;BME280;62336;-26.094;27.994;2023-05-03T08:34:02;85368.56;;;35.79;14.78
73974;BME280;62336;-26.094;27.994;2023-05-03T08:36:26;85365.39;;;35.73;14.56
73974;BME280;62336;-26.094;27.994;2023-05-03T08:38:52;85366.84;;;36.15;14.30
73974;BME280;62336;-26.094;27.994;2023-05-03T08:41:23;85362.79;;;36.60;14.07
73974;BME280;62336;-26.094;27.994;2023-05-03T08:43:44;85360.13;;;35.94;14.29
73974;BME280;62336;-26.094;27.994;2023-05-03T08:46:11;85361.55;;;36.18;14.02
73974;BME280;62336;-26.094;27.994;2023-05-03T08:48:34;85359.26;;;36.13;14.17
73974;BME280;62336;-26.094;27.994;2023-05-03T08:50:59;85356.75;;;36.35;14.02
73974;BME280;62336;-26.094;27.994;2023-05-03T08:53:25;85352.71;;;36.54;13.94
73974;BME280;62336;-26.094;27.994;2023-05-03T08:55:50;85348.94;;;36.47;13.78
73974;BME280;62336;-26.094;27.994;2023-05-03T08:58:15;85345.50;;;36.70;14.20
73974;BME280;62336;-26.094;27.994;2023-05-03T09:00:42;85344.17;;;37.24;13.61
73974;BME280;62336;-26.094;27.994;2023-05-03T09:03:06;85341.12;;;37.52;13.80
73974;BME280;62336;-26.094;27.994;2023-05-03T09:05:34;85336.36;;;37.33;13.71
73974;BME280;62336;-26.094;27.994;2023-05-03T09:08:03;85328.64;;;37.17;13.50
73974;BME280;62336;-26.094;27.994;2023-05-03T09:10:23;85325.57;;;36.90;13.65
73974;BME280;62336;-26.094;27.994;2023-05-03T09:12:47;85322.65;;;37.08;13.47
73974;BME280;62336;-26.094;27.994;2023-05-03T09:15:20;85320.99;;;37.00;13.62
73974;BME280;62336;-26.094;27.994;2023-05-03T09:17:38;85317.71;;;37.48;13.47
73974;BME280;62336;-26.094;27.994;2023-05-03T09:20:04;85315.46;;;37.28;13.78
73974;BME280;62336;-26.094;27.994;2023-05-03T09:22:31;85316.78;;;36.73;13.84
73974;BME280;62336;-26.094;27.994;2023-05-03T09:24:56;85310.07;;;36.67;13.82
73974;BME280;62336;-26.094;27.994;2023-05-03T09:27:21;85309.85;;;37.76;13.88
73974;BME280;62336;-26.094;27.994;2023-05-03T09:29:46;85307.84;;;37.54;13.71
73974;BME280;62336;-26.094;27.994;2023-05-03T09:32:11;85306.76;;;37.63;13.62
73974;BME280;62336;-26.094;27.994;2023-05-03T09:34:36;85302.75;;;36.84;13.59
73974;BME280;62336;-26.094;27.994;2023-05-03T09:37:01;85299.30;;;37.14;13.91
73974;BME280;62336;-26.094;27.994;2023-05-03T09:39:27;85298.92;;;37.09;13.92
73974;BME280;62336;-26.094;27.994;2023-05-03T09:41:52;85296.01;;;37.65;13.87
73974;BME280;62336;-26.094;27.994;2023-05-03T09:44:17;85295.49;;;37.69;13.63
73974;BME280;62336;-26.094;27.994;2023-05-03T09:49:08;85288.76;;;37.94;13.54
73974;BME280;62336;-26.094;27.994;2023-05-03T09:51:33;85282.32;;;37.74;13.70
73974;BME280;62336;-26.094;27.994;2023-05-03T09:53:59;85276.25;;;37.96;13.58
73974;BME280;62336;-26.094;27.994;2023-05-03T09:56:24;85270.43;;;37.92;13.51
73974;BME280;62336;-26.094;27.994;2023-05-03T09:58:49;85268.33;;;38.01;13.66
73974;BME280;62336;-26.094;27.994;2023-05-03T10:01:14;85267.58;;;38.19;13.33
73974;BME280;62336;-26.094;27.994;2023-05-03T10:03:41;85259.77;;;38.06;13.48
73974;BME280;62336;-26.094;27.994;2023-05-03T10:06:10;85251.68;;;38.20;13.09
73974;BME280;62336;-26.094;27.994;2023-05-03T10:08:40;85255.77;;;37.71;13.59
73974;BME280;62336;-26.094;27.994;2023-05-03T10:10:56;85251.18;;;37.98;13.49
73974;BME280;62336;-26.094;27.994;2023-05-03T10:13:22;85245.29;;;38.05;13.45
73974;BME280;62336;-26.094;27.994;2023-05-03T10:15:47;85242.39;;;37.85;14.05
73974;BME280;62336;-26.094;27.994;2023-05-03T10:18:13;85242.93;;;37.66;13.52
73974;BME280;62336;-26.094;27.994;2023-05-03T10:20:40;85241.00;;;37.84;13.62
73974;BME280;62336;-26.094;27.994;2023-05-03T10:23:09;85241.95;;;37.45;13.57
73974;BME280;62336;-26.094;27.994;2023-05-03T10:25:28;85237.87;;;37.43;13.48
73974;BME280;62336;-26.094;27.994;2023-05-03T10:27:53;85233.30;;;38.26;13.58
73974;BME280;62336;-26.094;27.994;2023-05-03T10:30:26;85228.35;;;38.30;13.43
73974;BME280;62336;-26.094;27.994;2023-05-03T10:32:43;85229.16;;;38.21;13.29
73974;BME280;62336;-26.094;27.994;2023-05-03T10:35:11;85227.24;;;38.45;13.34
73974;BME280;62336;-26.094;27.994;2023-05-03T10:37:34;85225.58;;;38.62;12.66
73974;BME280;62336;-26.094;27.994;2023-05-03T10:40:05;85224.43;;;37.96;13.46
73974;BME280;62336;-26.094;27.994;2023-05-03T10:42:25;85219.06;;;38.12;13.87
73974;BME280;62336;-26.094;27.994;2023-05-03T10:44:51;85217.54;;;38.38;13.68
73974;BME280;62336;-26.094;27.994;2023-05-03T10:47:17;85219.99;;;37.96;13.23
73974;BME280;62336;-26.094;27.994;2023-05-03T10:49:41;85213.90;;;38.51;13.15
73974;BME280;62336;-26.094;27.994;2023-05-03T10:54:31;85209.39;;;38.54;13.39
73974;BME280;62336;-26.094;27.994;2023-05-03T10:56:57;85203.59;;;38.25;13.07
73974;BME280;62336;-26.094;27.994;2023-05-03T10:59:22;85204.65;;;38.54;12.89
73974;BME280;62336;-26.094;27.994;2023-05-03T11:01:49;85201.15;;;37.99;13.07
73974;BME280;62336;-26.094;27.994;2023-05-03T11:04:19;85193.68;;;38.31;12.84
73974;BME280;62336;-26.094;27.994;2023-05-03T11:06:39;85194.75;;;38.61;12.48
73974;BME280;62336;-26.094;27.994;2023-05-03T11:09:05;85191.81;;;38.72;12.81
73974;BME280;62336;-26.094;27.994;2023-05-03T11:11:29;85189.67;;;39.05;12.76
73974;BME280;62336;-26.094;27.994;2023-05-03T11:13:55;85190.35;;;38.94;12.75
73974;BME280;62336;-26.094;27.994;2023-05-03T11:16:21;85187.14;;;39.05;12.13
73974;BME280;62336;-26.094;27.994;2023-05-03T11:18:46;85179.46;;;38.77;12.45
73974;BME280;62336;-26.094;27.994;2023-05-03T11:21:11;85185.10;;;39.23;12.70
73974;BME280;62336;-26.094;27.994;2023-05-03T11:23:38;85180.64;;;39.11;12.72
73974;BME280;62336;-26.094;27.994;2023-05-03T11:26:05;85178.11;;;39.38;12.50
73974;BME280;62336;-26.094;27.994;2023-05-03T11:28:28;85174.37;;;39.26;12.37
73974;BME280;62336;-26.094;27.994;2023-05-03T11:30:53;85171.22;;;39.11;12.01
73974;BME280;62336;-26.094;27.994;2023-05-03T11:33:19;85174.65;;;39.17;12.09
73974;BME280;62336;-26.094;27.994;2023-05-03T11:35:44;85172.35;;;39.68;11.13
73974;BME280;62336;-26.094;27.994;2023-05-03T11:38:10;85171.82;;;39.58;11.16
73974;BME280;62336;-26.094;27.994;2023-05-03T11:40:35;85166.67;;;39.85;11.39
73974;BME280;62336;-26.094;27.994;2023-05-03T11:43:00;85167.51;;;39.50;11.12
73974;BME280;62336;-26.094;27.994;2023-05-03T11:45:28;85163.08;;;38.75;11.53
73974;BME280;62336;-26.094;27.994;2023-05-03T11:47:51;85165.72;;;39.16;11.68
73974;BME280;62336;-26.094;27.994;2023-05-03T11:50:17;85164.36;;;39.11;11.74
73974;BME280;62336;-26.094;27.994;2023-05-03T11:52:43;85162.88;;;39.55;11.43
73974;BME280;62336;-26.094;27.994;2023-05-03T11:55:09;85165.77;;;39.42;12.00
73974;BME280;62336;-26.094;27.994;2023-05-03T11:57:32;85161.83;;;39.44;11.39
73974;BME280;62336;-26.094;27.994;2023-05-03T12:00:11;85161.87;;;39.68;11.23
73974;BME280;62336;-26.094;27.994;2023-05-03T12:02:23;85159.14;;;39.79;11.41
73974;BME280;62336;-26.094;27.994;2023-05-03T12:04:49;85155.59;;;39.68;11.85
73974;BME280;62336;-26.094;27.994;2023-05-03T12:07:15;85153.61;;;40.04;11.65
73974;BME280;62336;-26.094;27.994;2023-05-03T12:09:40;85153.57;;;40.04;11.83
73974;BME280;62336;-26.094;27.994;2023-05-03T12:12:05;85157.01;;;39.91;11.33
73974;BME280;62336;-26.094;27.994;2023-05-03T12:16:56;85149.71;;;39.94;11.39
73974;BME280;62336;-26.094;27.994;2023-05-03T12:19:25;85150.01;;;39.29;10.79
73974;BME280;62336;-26.094;27.994;2023-05-03T12:21:47;85144.33;;;39.04;11.64
73974;BME280;62336;-26.094;27.994;2023-05-03T12:24:12;85141.02;;;40.10;12.07
73974;BME280;62336;-26.094;27.994;2023-05-03T12:26:37;85141.23;;;39.99;11.96
73974;BME280;62336;-26.094;27.994;2023-05-03T12:29:03;85144.24;;;39.91;11.73
73974;BME280;62336;-26.094;27.994;2023-05-03T12:31:28;85147.45;;;39.27;11.78
73974;BME280;62336;-26.094;27.994;2023-05-03T12:33:54;85143.86;;;39.77;12.41
73974;BME280;62336;-26.094;27.994;2023-05-03T12:36:19;85143.29;;;39.58;12.19
73974;BME280;62336;-26.094;27.994;2023-05-03T12:38:44;85138.45;;;39.73;12.50